TIBIJ MROC-MRSN
Flight info
| Callsign | TIBIJ |
|---|---|
| Flight time | 0h 46m |
| Altitude | 11500 |
| Route | FINCA |
| Aircraft | K100/L-SBDGRY/S |
Departure
| Time | 2026-04-12 02:53 |
|---|---|
| Airport | Juan Santamaría International Airport (MROC) |
Arrival
| Time | 2026-04-12 03:40 |
|---|---|
| Airport | Sirena Airport (MRSN) |
| Time | Latitude | Longitude | Altitude | Speed | Heading |
|---|---|---|---|---|---|
| 2026-04-12 02:48 | 9.95781 | -84.13927 | 3284 ft | 0 kts | 94° |
| 2026-04-12 02:50 | 9.95779 | -84.13916 | 3284 ft | 6 kts | 111° |
| 2026-04-12 02:51 | 9.95763 | -84.13950 | 3285 ft | 11 kts | 266° |
| 2026-04-12 02:51 | 9.95769 | -84.14053 | 3289 ft | 18 kts | 276° |
| 2026-04-12 02:51 | 9.95782 | -84.14200 | 3292 ft | 24 kts | 274° |
| 2026-04-12 02:51 | 9.95795 | -84.14389 | 3288 ft | 30 kts | 274° |
| 2026-04-12 02:52 | 9.95811 | -84.14604 | 3281 ft | 22 kts | 270° |
| 2026-04-12 02:52 | 9.95769 | -84.14642 | 3280 ft | 12 kts | 99° |
| 2026-04-12 02:52 | 9.95767 | -84.14625 | 3281 ft | 0 kts | 91° |
| 2026-04-12 02:52 | 9.95752 | -84.14439 | 3288 ft | 60 kts | 95° |
| 2026-04-12 02:53 | 9.95710 | -84.13847 | 3343 ft | 101 kts | 92° |
| 2026-04-12 02:53 | 9.95633 | -84.13093 | 3505 ft | 113 kts | 94° |
| 2026-04-12 02:53 | 9.96395 | -84.11920 | 3967 ft | 115 kts | 353° |
| 2026-04-12 02:54 | 9.96991 | -84.12417 | 4104 ft | 122 kts | 288° |
| 2026-04-12 02:54 | 9.97140 | -84.13300 | 4186 ft | 132 kts | 274° |
| 2026-04-12 02:54 | 9.97171 | -84.14280 | 4214 ft | 148 kts | 272° |
| 2026-04-12 02:54 | 9.97201 | -84.15380 | 4151 ft | 161 kts | 271° |
| 2026-04-12 02:55 | 9.97222 | -84.16524 | 4109 ft | 165 kts | 270° |
| 2026-04-12 02:55 | 9.97205 | -84.17698 | 4133 ft | 164 kts | 268° |
| 2026-04-12 02:55 | 9.97184 | -84.18861 | 4077 ft | 166 kts | 269° |
| 2026-04-12 02:55 | 9.97151 | -84.20035 | 3988 ft | 168 kts | 268° |
| 2026-04-12 02:56 | 9.97104 | -84.21214 | 3955 ft | 166 kts | 267° |
| 2026-04-12 02:56 | 9.97038 | -84.22366 | 3915 ft | 160 kts | 266° |
| 2026-04-12 02:56 | 9.96934 | -84.23481 | 3862 ft | 158 kts | 263° |
| 2026-04-12 02:56 | 9.96885 | -84.24552 | 3774 ft | 143 kts | 284° |
| 2026-04-12 02:57 | 9.97482 | -84.25273 | 3650 ft | 140 kts | 336° |
| 2026-04-12 02:57 | 9.98358 | -84.25172 | 3650 ft | 124 kts | 39° |
| 2026-04-12 02:57 | 9.98674 | -84.24390 | 3492 ft | 131 kts | 86° |
| 2026-04-12 02:57 | 9.98672 | -84.23409 | 3243 ft | 138 kts | 88° |
| 2026-04-12 02:58 | 9.98795 | -84.22531 | 3085 ft | 117 kts | 74° |
| 2026-04-12 02:58 | 9.99025 | -84.21859 | 2957 ft | 77 kts | 68° |
| 2026-04-12 02:58 | 9.99112 | -84.21665 | 2972 ft | 7 kts | 304° |
| 2026-04-12 02:58 | 9.99159 | -84.21759 | 2964 ft | 23 kts | 260° |
| 2026-04-12 02:59 | 9.99097 | -84.21938 | 2955 ft | 29 kts | 262° |
| 2026-04-12 02:59 | 9.99080 | -84.22131 | 2948 ft | 28 kts | 249° |
| 2026-04-12 02:59 | 9.98999 | -84.22202 | 2945 ft | 0 kts | 161° |
| 2026-04-12 02:59 | 9.98998 | -84.22202 | 2945 ft | 0 kts | 160° |
| 2026-04-12 03:01 | 9.98944 | -84.22183 | 2942 ft | 14 kts | 158° |
| 2026-04-12 03:01 | 9.98945 | -84.22074 | 2949 ft | 44 kts | 68° |
| 2026-04-12 03:01 | 9.99137 | -84.21562 | 2979 ft | 106 kts | 69° |
| 2026-04-12 03:01 | 9.99432 | -84.20782 | 3123 ft | 131 kts | 68° |
| 2026-04-12 03:02 | 9.99764 | -84.19885 | 3453 ft | 136 kts | 69° |
| 2026-04-12 03:02 | 10.00057 | -84.19029 | 4077 ft | 118 kts | 70° |
| 2026-04-12 03:02 | 10.00322 | -84.18273 | 4651 ft | 109 kts | 68° |
| 2026-04-12 03:02 | 10.00603 | -84.17566 | 5146 ft | 108 kts | 68° |
| 2026-04-12 03:03 | 10.00873 | -84.16847 | 5588 ft | 109 kts | 67° |
| 2026-04-12 03:03 | 10.01138 | -84.16126 | 5953 ft | 110 kts | 78° |
| 2026-04-12 03:03 | 10.00886 | -84.15421 | 6381 ft | 110 kts | 134° |
| 2026-04-12 03:03 | 10.00264 | -84.14978 | 6818 ft | 109 kts | 148° |
| 2026-04-12 03:04 | 9.99619 | -84.14559 | 7230 ft | 110 kts | 146° |
| 2026-04-12 03:04 | 9.98972 | -84.14136 | 7643 ft | 111 kts | 146° |
| 2026-04-12 03:04 | 9.98298 | -84.13697 | 7994 ft | 118 kts | 147° |
| 2026-04-12 03:04 | 9.97604 | -84.13248 | 8398 ft | 118 kts | 147° |
| 2026-04-12 03:05 | 9.96921 | -84.12800 | 8784 ft | 119 kts | 147° |
| 2026-04-12 03:05 | 9.96223 | -84.12338 | 9230 ft | 119 kts | 146° |
| 2026-04-12 03:05 | 9.95526 | -84.11874 | 9665 ft | 120 kts | 146° |
| 2026-04-12 03:05 | 9.94820 | -84.11411 | 10096 ft | 121 kts | 146° |
| 2026-04-12 03:06 | 9.94110 | -84.10942 | 10505 ft | 122 kts | 146° |
| 2026-04-12 03:06 | 9.93395 | -84.10469 | 10900 ft | 123 kts | 147° |
| 2026-04-12 03:06 | 9.92673 | -84.09994 | 11295 ft | 124 kts | 146° |
| 2026-04-12 03:06 | 9.91902 | -84.09489 | 11445 ft | 144 kts | 148° |
| 2026-04-12 03:07 | 9.90994 | -84.08912 | 11456 ft | 162 kts | 148° |
| 2026-04-12 03:07 | 9.90008 | -84.08275 | 11458 ft | 172 kts | 147° |
| 2026-04-12 03:07 | 9.88984 | -84.07601 | 11453 ft | 178 kts | 147° |
| 2026-04-12 03:07 | 9.87948 | -84.06914 | 11451 ft | 182 kts | 147° |
| 2026-04-12 03:08 | 9.86880 | -84.06207 | 11457 ft | 185 kts | 147° |
| 2026-04-12 03:08 | 9.85792 | -84.05488 | 11457 ft | 188 kts | 147° |
| 2026-04-12 03:08 | 9.84689 | -84.04761 | 11451 ft | 190 kts | 147° |
| 2026-04-12 03:08 | 9.83584 | -84.04030 | 11453 ft | 189 kts | 147° |
| 2026-04-12 03:09 | 9.82478 | -84.03299 | 11458 ft | 190 kts | 147° |
| 2026-04-12 03:09 | 9.81361 | -84.02564 | 11447 ft | 192 kts | 147° |
| 2026-04-12 03:09 | 9.80249 | -84.01828 | 11445 ft | 191 kts | 147° |
| 2026-04-12 03:09 | 9.79137 | -84.01091 | 11451 ft | 191 kts | 147° |
| 2026-04-12 03:10 | 9.78021 | -84.00353 | 11446 ft | 191 kts | 147° |
| 2026-04-12 03:10 | 9.76907 | -83.99618 | 11444 ft | 191 kts | 147° |
| 2026-04-12 03:10 | 9.75795 | -83.98883 | 11449 ft | 191 kts | 147° |
| 2026-04-12 03:10 | 9.74682 | -83.98152 | 11445 ft | 190 kts | 147° |
| 2026-04-12 03:11 | 9.73571 | -83.97419 | 11444 ft | 190 kts | 147° |
| 2026-04-12 03:11 | 9.72466 | -83.96688 | 11444 ft | 190 kts | 147° |
| 2026-04-12 03:11 | 9.71356 | -83.95960 | 11444 ft | 190 kts | 147° |
| 2026-04-12 03:11 | 9.70262 | -83.95238 | 11444 ft | 190 kts | 147° |
| 2026-04-12 03:12 | 9.69155 | -83.94505 | 11458 ft | 191 kts | 148° |
| 2026-04-12 03:12 | 9.68030 | -83.93766 | 11439 ft | 192 kts | 147° |
| 2026-04-12 03:12 | 9.66916 | -83.93029 | 11440 ft | 191 kts | 147° |
| 2026-04-12 03:12 | 9.65805 | -83.92295 | 11438 ft | 191 kts | 147° |
| 2026-04-12 03:13 | 9.64691 | -83.91562 | 11447 ft | 191 kts | 147° |
| 2026-04-12 03:13 | 9.63569 | -83.90822 | 11443 ft | 192 kts | 147° |
| 2026-04-12 03:13 | 9.62453 | -83.90086 | 11441 ft | 191 kts | 147° |
| 2026-04-12 03:13 | 9.61315 | -83.89399 | 11436 ft | 190 kts | 158° |
| 2026-04-12 03:14 | 9.60046 | -83.89056 | 11441 ft | 189 kts | 167° |
| 2026-04-12 03:14 | 9.58776 | -83.88721 | 11491 ft | 187 kts | 165° |
| 2026-04-12 03:14 | 9.57517 | -83.88379 | 11497 ft | 188 kts | 166° |
| 2026-04-12 03:14 | 9.56263 | -83.88048 | 11496 ft | 188 kts | 166° |
| 2026-04-12 03:15 | 9.54997 | -83.87714 | 11496 ft | 188 kts | 166° |
| 2026-04-12 03:15 | 9.53729 | -83.87379 | 11496 ft | 188 kts | 166° |
| 2026-04-12 03:15 | 9.52462 | -83.87043 | 11499 ft | 188 kts | 166° |
| 2026-04-12 03:15 | 9.51193 | -83.86707 | 11498 ft | 189 kts | 166° |
| 2026-04-12 03:16 | 9.49923 | -83.86371 | 11499 ft | 190 kts | 166° |
| 2026-04-12 03:16 | 9.48646 | -83.86035 | 11498 ft | 189 kts | 166° |
| 2026-04-12 03:16 | 9.47372 | -83.85699 | 11499 ft | 189 kts | 166° |
| 2026-04-12 03:16 | 9.46102 | -83.85364 | 11499 ft | 188 kts | 166° |
| 2026-04-12 03:17 | 9.44835 | -83.85028 | 11499 ft | 188 kts | 166° |
| 2026-04-12 03:17 | 9.43571 | -83.84694 | 11500 ft | 188 kts | 166° |
| 2026-04-12 03:17 | 9.42301 | -83.84358 | 11501 ft | 189 kts | 166° |
| 2026-04-12 03:17 | 9.41030 | -83.84023 | 11500 ft | 189 kts | 166° |
| 2026-04-12 03:18 | 9.39757 | -83.83686 | 11501 ft | 189 kts | 166° |
| 2026-04-12 03:18 | 9.38484 | -83.83350 | 11501 ft | 189 kts | 166° |
| 2026-04-12 03:18 | 9.37210 | -83.83014 | 11501 ft | 189 kts | 166° |
| 2026-04-12 03:18 | 9.35936 | -83.82680 | 11501 ft | 189 kts | 166° |
| 2026-04-12 03:19 | 9.34676 | -83.82342 | 11501 ft | 190 kts | 166° |
| 2026-04-12 03:19 | 9.33383 | -83.82002 | 11506 ft | 190 kts | 166° |
| 2026-04-12 03:19 | 9.32122 | -83.81671 | 11502 ft | 189 kts | 166° |
| 2026-04-12 03:19 | 9.30849 | -83.81334 | 11502 ft | 189 kts | 166° |
| 2026-04-12 03:20 | 9.29572 | -83.80995 | 11502 ft | 189 kts | 166° |
| 2026-04-12 03:20 | 9.28298 | -83.80659 | 11502 ft | 189 kts | 166° |
| 2026-04-12 03:20 | 9.27021 | -83.80323 | 11503 ft | 189 kts | 166° |
| 2026-04-12 03:20 | 9.25749 | -83.79988 | 11506 ft | 190 kts | 165° |
| 2026-04-12 03:21 | 9.24467 | -83.79648 | 11508 ft | 191 kts | 166° |
| 2026-04-12 03:21 | 9.23181 | -83.79310 | 11503 ft | 191 kts | 166° |
| 2026-04-12 03:21 | 9.21899 | -83.78971 | 11504 ft | 190 kts | 166° |
| 2026-04-12 03:21 | 9.20618 | -83.78633 | 11502 ft | 190 kts | 166° |
| 2026-04-12 03:22 | 9.19342 | -83.78298 | 11503 ft | 189 kts | 166° |
| 2026-04-12 03:22 | 9.18068 | -83.77961 | 11502 ft | 189 kts | 166° |
| 2026-04-12 03:22 | 9.16794 | -83.77625 | 11502 ft | 189 kts | 166° |
| 2026-04-12 03:22 | 9.15520 | -83.77289 | 11503 ft | 189 kts | 166° |
| 2026-04-12 03:23 | 9.14248 | -83.76953 | 11503 ft | 189 kts | 166° |
| 2026-04-12 03:23 | 9.12994 | -83.76622 | 11503 ft | 189 kts | 166° |
| 2026-04-12 03:23 | 9.11723 | -83.76287 | 11503 ft | 189 kts | 166° |
| 2026-04-12 03:23 | 9.10450 | -83.75951 | 11502 ft | 189 kts | 166° |
| 2026-04-12 03:24 | 9.09179 | -83.75616 | 11503 ft | 189 kts | 166° |
| 2026-04-12 03:24 | 9.07906 | -83.75280 | 11503 ft | 189 kts | 166° |
| 2026-04-12 03:24 | 9.06634 | -83.74945 | 11503 ft | 189 kts | 166° |
| 2026-04-12 03:24 | 9.05361 | -83.74609 | 11503 ft | 189 kts | 166° |
| 2026-04-12 03:25 | 9.04091 | -83.74274 | 11503 ft | 189 kts | 166° |
| 2026-04-12 03:25 | 9.02818 | -83.73939 | 11502 ft | 189 kts | 166° |
| 2026-04-12 03:25 | 9.01548 | -83.73604 | 11503 ft | 189 kts | 166° |
| 2026-04-12 03:25 | 9.00292 | -83.73273 | 11503 ft | 189 kts | 166° |
| 2026-04-12 03:26 | 8.99020 | -83.72938 | 11503 ft | 189 kts | 166° |
| 2026-04-12 03:26 | 8.97747 | -83.72602 | 11503 ft | 189 kts | 166° |
| 2026-04-12 03:26 | 8.96476 | -83.72267 | 11503 ft | 189 kts | 166° |
| 2026-04-12 03:26 | 8.95202 | -83.71931 | 11503 ft | 189 kts | 166° |
| 2026-04-12 03:27 | 8.93931 | -83.71597 | 11503 ft | 189 kts | 166° |
| 2026-04-12 03:27 | 8.92661 | -83.71262 | 11503 ft | 189 kts | 166° |
| 2026-04-12 03:27 | 8.91389 | -83.70927 | 11503 ft | 189 kts | 166° |
| 2026-04-12 03:27 | 8.90115 | -83.70591 | 11503 ft | 189 kts | 166° |
| 2026-04-12 03:28 | 8.88843 | -83.70256 | 11503 ft | 189 kts | 166° |
| 2026-04-12 03:28 | 8.87570 | -83.69921 | 11503 ft | 189 kts | 166° |
| 2026-04-12 03:28 | 8.86298 | -83.69586 | 11503 ft | 189 kts | 166° |
| 2026-04-12 03:28 | 8.85042 | -83.69255 | 11503 ft | 189 kts | 166° |
| 2026-04-12 03:29 | 8.83772 | -83.68921 | 11503 ft | 189 kts | 166° |
| 2026-04-12 03:29 | 8.82477 | -83.68580 | 11295 ft | 197 kts | 166° |
| 2026-04-12 03:29 | 8.81186 | -83.68242 | 10982 ft | 186 kts | 166° |
| 2026-04-12 03:29 | 8.79955 | -83.67917 | 10672 ft | 180 kts | 166° |
| 2026-04-12 03:30 | 8.78748 | -83.67598 | 10374 ft | 178 kts | 166° |
| 2026-04-12 03:30 | 8.77556 | -83.67284 | 10071 ft | 176 kts | 166° |
| 2026-04-12 03:30 | 8.76370 | -83.66971 | 9769 ft | 176 kts | 166° |
| 2026-04-12 03:30 | 8.75189 | -83.66661 | 9469 ft | 175 kts | 166° |
| 2026-04-12 03:31 | 8.74008 | -83.66350 | 9169 ft | 175 kts | 166° |
| 2026-04-12 03:31 | 8.72829 | -83.66040 | 8867 ft | 175 kts | 166° |
| 2026-04-12 03:31 | 8.71653 | -83.65730 | 8570 ft | 175 kts | 166° |
| 2026-04-12 03:31 | 8.70494 | -83.65425 | 8274 ft | 174 kts | 166° |
| 2026-04-12 03:32 | 8.69316 | -83.65115 | 7974 ft | 174 kts | 166° |
| 2026-04-12 03:32 | 8.68143 | -83.64807 | 7674 ft | 174 kts | 166° |
| 2026-04-12 03:32 | 8.66971 | -83.64498 | 7377 ft | 174 kts | 166° |
| 2026-04-12 03:32 | 8.66196 | -83.64294 | 7176 ft | 174 kts | 166° |
| 2026-04-12 03:33 | 8.65026 | -83.63986 | 6877 ft | 174 kts | 166° |
| 2026-04-12 03:33 | 8.63857 | -83.63677 | 6578 ft | 173 kts | 166° |
| 2026-04-12 03:33 | 8.62691 | -83.63368 | 6279 ft | 173 kts | 166° |
| 2026-04-12 03:33 | 8.61525 | -83.63060 | 5979 ft | 173 kts | 166° |
| 2026-04-12 03:34 | 8.60357 | -83.62750 | 5679 ft | 173 kts | 166° |
| 2026-04-12 03:34 | 8.59193 | -83.62442 | 5378 ft | 173 kts | 166° |
| 2026-04-12 03:34 | 8.58031 | -83.62136 | 5080 ft | 172 kts | 166° |
| 2026-04-12 03:34 | 8.56876 | -83.61832 | 4778 ft | 170 kts | 166° |
| 2026-04-12 03:35 | 8.55747 | -83.61536 | 4485 ft | 169 kts | 166° |
| 2026-04-12 03:35 | 8.54615 | -83.61341 | 4249 ft | 162 kts | 175° |
| 2026-04-12 03:35 | 8.53530 | -83.61207 | 4134 ft | 150 kts | 172° |
| 2026-04-12 03:35 | 8.52520 | -83.61175 | 3767 ft | 142 kts | 185° |
| 2026-04-12 03:36 | 8.51567 | -83.61215 | 3436 ft | 133 kts | 179° |
| 2026-04-12 03:36 | 8.50602 | -83.61151 | 2765 ft | 146 kts | 175° |
| 2026-04-12 03:36 | 8.49606 | -83.60924 | 2001 ft | 147 kts | 150° |
| 2026-04-12 03:36 | 8.48718 | -83.60452 | 1026 ft | 155 kts | 162° |
| 2026-04-12 03:37 | 8.47693 | -83.60293 | 568 ft | 122 kts | 177° |
| 2026-04-12 03:37 | 8.47181 | -83.60010 | 428 ft | 74 kts | 104° |
| 2026-04-12 03:37 | 8.47297 | -83.59550 | 383 ft | 80 kts | 117° |
| 2026-04-12 03:37 | 8.47404 | -83.59248 | 293 ft | 62 kts | 313° |
| 2026-04-12 03:38 | 8.47537 | -83.59516 | 397 ft | 84 kts | 290° |
| 2026-04-12 03:38 | 8.47540 | -83.59523 | 401 ft | 84 kts | 288° |
| 2026-04-12 03:38 | 8.47565 | -83.60231 | 241 ft | 108 kts | 262° |
| 2026-04-12 03:38 | 8.47340 | -83.60939 | 178 ft | 106 kts | 220° |
| 2026-04-12 03:39 | 8.46748 | -83.60727 | 68 ft | 104 kts | 110° |
| 2026-04-12 03:39 | 8.46582 | -83.60006 | 140 ft | 106 kts | 92° |
| 2026-04-12 03:39 | 8.46970 | -83.59623 | 225 ft | 100 kts | 42° |
| 2026-04-12 03:39 | 8.47518 | -83.59255 | 74 ft | 74 kts | 28° |
| 2026-04-12 03:40 | 8.47824 | -83.59082 | 75 ft | 31 kts | 30° |